createdAt,value
2023-05-02T00:02:04.654Z,3.90
2023-05-02T00:04:53.727Z,4.22
2023-05-02T00:07:41.047Z,4.05
2023-05-02T00:10:28.487Z,3.60
2023-05-02T00:13:16.343Z,3.67
2023-05-02T00:16:03.699Z,4.05
2023-05-02T00:18:50.842Z,3.53
2023-05-02T00:21:39.553Z,3.70
2023-05-02T00:24:27.293Z,4.00
2023-05-02T00:27:15.263Z,3.50
2023-05-02T00:30:03.067Z,3.38
2023-05-02T00:32:50.970Z,3.70
2023-05-02T00:35:38.577Z,3.40
2023-05-02T00:38:27.264Z,3.35
2023-05-02T00:41:15.008Z,3.80
2023-05-02T00:44:02.653Z,3.40
2023-05-02T00:46:50.472Z,3.58
2023-05-02T00:49:38.227Z,4.15
2023-05-02T00:52:25.586Z,3.42
2023-05-02T00:55:14.356Z,3.95
2023-05-02T00:58:02.362Z,3.80
2023-05-02T01:00:59.414Z,3.88
2023-05-02T01:03:53.151Z,3.65
2023-05-02T01:06:49.673Z,3.47
2023-05-02T01:09:41.726Z,3.33
2023-05-02T01:12:33.208Z,3.60
2023-05-02T01:15:22.449Z,4.00
2023-05-02T01:18:11.965Z,3.45
2023-05-02T01:21:00.905Z,3.70
2023-05-02T01:23:53.465Z,3.60
2023-05-02T01:26:47.671Z,3.60
2023-05-02T01:29:37.258Z,3.58
2023-05-02T01:32:25.656Z,3.85
2023-05-02T01:35:13.388Z,3.80
2023-05-02T01:38:02.690Z,3.65
2023-05-02T01:40:51.959Z,3.80
2023-05-02T01:43:40.117Z,3.80
2023-05-02T01:46:29.890Z,3.92
2023-05-02T01:49:18.067Z,4.05
2023-05-02T01:52:07.661Z,3.60
2023-05-02T01:54:55.513Z,3.67
2023-05-02T01:57:44.112Z,3.90
2023-05-02T02:00:32.595Z,3.92
2023-05-02T02:03:23.466Z,3.47
2023-05-02T02:06:14.185Z,3.70
2023-05-02T02:09:01.444Z,3.97
2023-05-02T02:11:51.290Z,3.75
2023-05-02T02:14:40.039Z,3.75
2023-05-02T02:17:29.522Z,3.70
2023-05-02T02:20:18.678Z,3.45
2023-05-02T02:23:08.394Z,3.78
2023-05-02T02:25:57.441Z,3.63
2023-05-02T02:28:45.390Z,3.40
2023-05-02T02:31:33.674Z,3.58
2023-05-02T02:34:22.002Z,3.42
2023-05-02T02:37:16.082Z,3.10
2023-05-02T02:40:07.208Z,3.50
2023-05-02T02:43:05.235Z,3.60
2023-05-02T02:45:58.128Z,3.38
2023-05-02T02:48:50.443Z,3.30
2023-05-02T02:51:40.479Z,3.08
2023-05-02T02:54:32.830Z,3.50
2023-05-02T02:57:23.801Z,3.50
2023-05-02T03:00:14.788Z,3.30
2023-05-02T03:03:02.239Z,3.45
2023-05-02T03:05:50.180Z,3.63
2023-05-02T03:08:41.268Z,3.28
2023-05-02T03:11:32.859Z,4.88
2023-05-02T03:14:20.470Z,2.92
2023-05-02T03:17:08.552Z,3.25
2023-05-02T03:19:57.418Z,2.70
2023-05-02T03:22:45.182Z,3.33
2023-05-02T03:25:33.061Z,3.00
2023-05-02T03:28:21.756Z,2.90
2023-05-02T03:31:11.026Z,3.38
2023-05-02T03:34:01.013Z,3.10
2023-05-02T03:36:48.317Z,3.40
2023-05-02T03:39:36.672Z,3.33
2023-05-02T03:42:25.050Z,3.53
2023-05-02T03:45:14.234Z,3.60
2023-05-02T03:48:02.060Z,3.67
2023-05-02T03:50:51.614Z,3.15
2023-05-02T03:53:39.402Z,3.50
2023-05-02T03:56:27.868Z,3.20
2023-05-02T03:59:27.528Z,3.95
2023-05-02T04:02:17.482Z,4.68
2023-05-02T04:05:08.738Z,4.55
2023-05-02T04:07:57.824Z,4.22
2023-05-02T04:10:46.107Z,4.10
2023-05-02T04:13:34.656Z,3.65
2023-05-02T04:16:22.570Z,3.77
2023-05-02T04:19:11.906Z,3.08
2023-05-02T04:22:00.039Z,3.58
2023-05-02T04:24:47.256Z,3.53
2023-05-02T04:27:36.126Z,3.03
2023-05-02T04:30:23.549Z,2.90
2023-05-02T04:33:20.442Z,2.70
2023-05-02T04:36:11.563Z,2.70
2023-05-02T04:39:03.699Z,3.00
2023-05-02T04:41:54.957Z,2.95
2023-05-02T04:44:44.711Z,2.72
2023-05-02T04:47:32.588Z,2.28
2023-05-02T04:50:20.993Z,2.45
2023-05-02T04:53:09.894Z,2.83
2023-05-02T04:55:58.370Z,2.92
2023-05-02T04:58:46.538Z,2.88
2023-05-02T05:01:34.556Z,2.83
2023-05-02T05:04:23.976Z,3.20
2023-05-02T05:07:11.463Z,2.30
2023-05-02T05:10:00.722Z,3.00
2023-05-02T05:12:54.056Z,2.88
2023-05-02T05:15:42.696Z,2.92
2023-05-02T05:18:30.463Z,3.28
2023-05-02T05:21:18.256Z,3.00
2023-05-02T05:24:06.276Z,3.03
2023-05-02T05:26:55.000Z,3.10
2023-05-02T05:29:43.255Z,2.95
2023-05-02T05:32:31.340Z,3.17
2023-05-02T05:35:19.133Z,2.95
2023-05-02T05:38:07.221Z,3.13
2023-05-02T05:40:57.982Z,3.30
2023-05-02T05:43:47.763Z,3.20
2023-05-02T05:46:35.623Z,2.90
2023-05-02T05:49:24.940Z,3.40
2023-05-02T05:52:13.323Z,3.47
2023-05-02T05:55:00.964Z,3.42
2023-05-02T05:57:49.525Z,3.55
2023-05-02T06:00:38.426Z,3.10
2023-05-02T06:03:26.476Z,3.15
2023-05-02T06:06:14.205Z,3.55
2023-05-02T06:09:02.047Z,3.70
2023-05-02T06:11:49.800Z,3.72
2023-05-02T06:14:37.660Z,4.65
2023-05-02T06:17:26.846Z,4.45
2023-05-02T06:20:15.663Z,4.55
2023-05-02T06:23:04.032Z,5.00
2023-05-02T06:25:51.456Z,3.97
2023-05-02T06:28:38.789Z,4.45
2023-05-02T06:31:26.153Z,4.65
2023-05-02T06:34:14.939Z,4.10
2023-05-02T06:37:02.534Z,4.85
2023-05-02T06:39:49.775Z,4.18
2023-05-02T06:42:37.165Z,5.03
2023-05-02T06:45:24.608Z,4.22
2023-05-02T06:48:12.120Z,5.38
2023-05-02T06:51:01.314Z,5.18
2023-05-02T06:53:48.728Z,5.35
2023-05-02T06:56:36.189Z,5.97
2023-05-02T06:59:23.699Z,5.90
2023-05-02T07:02:11.246Z,6.28
2023-05-02T07:04:58.693Z,6.10
2023-05-02T07:07:47.523Z,5.70
2023-05-02T07:10:35.178Z,5.70
2023-05-02T07:13:22.537Z,5.63
2023-05-02T07:16:10.127Z,5.97
2023-05-02T07:18:57.753Z,5.65
2023-05-02T07:21:45.356Z,5.78
2023-05-02T07:24:34.126Z,5.47
2023-05-02T07:27:21.847Z,6.13
2023-05-02T07:30:09.700Z,5.93
2023-05-02T07:32:57.246Z,5.65
2023-05-02T07:35:45.763Z,4.97
2023-05-02T07:38:33.244Z,5.38
2023-05-02T07:41:22.074Z,5.00
2023-05-02T07:44:09.800Z,5.03
2023-05-02T07:46:57.374Z,5.07
2023-05-02T07:49:45.038Z,5.25
2023-05-02T07:52:32.556Z,4.38
2023-05-02T07:55:20.247Z,5.43
2023-05-02T07:58:09.069Z,4.88
2023-05-02T08:00:56.892Z,4.88
2023-05-02T08:03:44.479Z,4.82
2023-05-02T08:06:32.767Z,4.82
2023-05-02T08:09:20.449Z,4.80
2023-05-02T08:12:07.847Z,5.43
2023-05-02T08:14:56.524Z,4.93
2023-05-02T08:17:44.273Z,4.65
2023-05-02T08:20:32.034Z,5.00
2023-05-02T08:23:19.508Z,4.78
2023-05-02T08:26:06.909Z,4.95
2023-05-02T08:28:56.648Z,5.20
2023-05-02T08:31:45.749Z,5.07
2023-05-02T08:34:33.828Z,4.70
2023-05-02T08:37:21.503Z,5.13
2023-05-02T08:40:13.263Z,4.90
2023-05-02T08:43:00.799Z,4.68
2023-05-02T08:45:48.161Z,4.35
2023-05-02T08:48:37.499Z,3.83
2023-05-02T08:51:26.092Z,4.15
2023-05-02T08:54:13.987Z,3.80
2023-05-02T08:57:03.498Z,3.40
2023-05-02T08:59:50.876Z,3.22
2023-05-02T09:02:45.000Z,2.80
2023-05-02T09:05:35.593Z,2.88
2023-05-02T09:08:26.690Z,2.80
2023-05-02T09:11:14.802Z,3.20
2023-05-02T09:14:04.329Z,2.88
2023-05-02T09:16:52.174Z,2.60
2023-05-02T09:19:39.868Z,3.05
2023-05-02T09:22:28.758Z,3.17
2023-05-02T09:25:16.854Z,2.90
2023-05-02T09:28:04.277Z,3.10
2023-05-02T09:30:51.614Z,2.92
2023-05-02T09:33:39.418Z,2.88
2023-05-02T09:36:27.116Z,3.03
2023-05-02T09:39:16.785Z,3.10
2023-05-02T09:42:04.202Z,2.58
2023-05-02T09:44:51.823Z,2.72
2023-05-02T09:47:39.194Z,2.83
2023-05-02T09:50:37.166Z,2.90
2023-05-02T09:53:26.692Z,2.70
2023-05-02T09:56:15.676Z,3.28
2023-05-02T09:59:15.596Z,3.13
2023-05-02T10:02:04.299Z,2.83
2023-05-02T10:04:53.367Z,3.00
2023-05-02T10:07:41.316Z,2.58
2023-05-02T10:10:29.338Z,2.40
2023-05-02T10:13:18.805Z,2.63
2023-05-02T10:16:07.426Z,2.72
2023-05-02T10:19:00.575Z,3.08
2023-05-02T10:21:48.761Z,2.80
2023-05-02T10:24:36.519Z,2.90
2023-05-02T10:27:24.142Z,2.78
2023-05-02T10:30:14.718Z,2.90
2023-05-02T10:33:02.617Z,2.72
2023-05-02T10:35:49.900Z,2.58
2023-05-02T10:38:38.344Z,2.58
2023-05-02T10:41:27.435Z,2.88
2023-05-02T10:44:15.719Z,2.85
2023-05-02T10:47:20.046Z,3.70
2023-05-02T10:50:08.603Z,3.78
2023-05-02T10:52:56.403Z,3.28
2023-05-02T10:55:44.371Z,2.55
2023-05-02T10:58:32.790Z,2.33
2023-05-02T11:01:39.826Z,2.75
2023-05-02T11:04:48.781Z,2.70
2023-05-02T11:07:36.946Z,2.65
2023-05-02T11:10:31.388Z,2.88
2023-05-02T11:13:39.030Z,3.63
2023-05-02T11:16:26.773Z,4.18
2023-05-02T11:19:14.109Z,3.30
2023-05-02T11:22:16.535Z,3.63
2023-05-02T11:25:05.917Z,4.65
2023-05-02T11:27:53.287Z,3.90
2023-05-02T11:30:44.735Z,4.38
2023-05-02T11:33:32.109Z,4.80
2023-05-02T11:36:30.182Z,3.97
2023-05-02T11:39:21.567Z,3.97
2023-05-02T11:42:10.369Z,3.40
2023-05-02T11:44:58.975Z,3.53
2023-05-02T11:47:47.469Z,3.28
2023-05-02T11:50:35.127Z,3.10
2023-05-02T11:53:23.459Z,3.00
2023-05-02T11:56:11.005Z,3.28
2023-05-02T11:59:03.400Z,3.28
2023-05-02T12:01:53.560Z,2.88
2023-05-02T12:04:44.678Z,2.83
2023-05-02T12:07:36.947Z,2.80
2023-05-02T12:10:24.697Z,2.75
2023-05-02T12:13:12.420Z,3.08
2023-05-02T12:16:01.541Z,3.03
2023-05-02T12:18:49.587Z,2.40
2023-05-02T12:21:37.325Z,3.03
2023-05-02T12:24:24.710Z,2.75
2023-05-02T12:27:13.220Z,2.67
2023-05-02T12:30:01.165Z,2.50
2023-05-02T12:32:58.223Z,2.75
2023-05-02T12:35:47.774Z,2.58
2023-05-02T12:38:35.216Z,2.83
2023-05-02T12:41:32.517Z,2.72
2023-05-02T12:44:38.617Z,2.85
2023-05-02T12:47:26.406Z,2.30
2023-05-02T12:50:15.380Z,2.60
2023-05-02T12:53:03.890Z,2.15
2023-05-02T12:55:51.360Z,2.78
2023-05-02T12:58:42.987Z,2.90
2023-05-02T13:01:31.539Z,2.25
2023-05-02T13:04:19.332Z,3.10
2023-05-02T13:07:07.918Z,3.08
2023-05-02T13:09:55.586Z,3.28
2023-05-02T13:12:44.400Z,2.83
2023-05-02T13:15:32.485Z,3.08
2023-05-02T13:18:20.260Z,2.88
2023-05-02T13:21:07.588Z,2.70
2023-05-02T13:23:56.847Z,2.95
2023-05-02T13:26:44.307Z,2.95
2023-05-02T13:29:31.662Z,2.70
2023-05-02T13:32:18.974Z,2.83
2023-05-02T13:35:06.664Z,3.17
2023-05-02T13:37:54.026Z,4.40
2023-05-02T13:40:42.694Z,3.15
2023-05-02T13:43:30.261Z,2.40
2023-05-02T13:46:17.730Z,2.70
2023-05-02T13:49:05.475Z,2.90
2023-05-02T13:51:53.127Z,3.15
2023-05-02T13:54:40.681Z,2.67
2023-05-02T13:57:29.704Z,2.92
2023-05-02T14:00:17.876Z,2.60
2023-05-02T14:03:06.726Z,2.85
2023-05-02T14:05:54.714Z,3.15
2023-05-02T14:08:42.124Z,3.53
2023-05-02T14:11:29.699Z,2.90
2023-05-02T14:14:18.613Z,2.50
2023-05-02T14:17:06.340Z,2.92
2023-05-02T14:19:53.732Z,3.30
2023-05-02T14:22:41.492Z,2.63
2023-05-02T14:25:29.073Z,3.25
2023-05-02T14:28:16.432Z,2.90
2023-05-02T14:31:05.482Z,2.85
2023-05-02T14:33:53.221Z,2.90
2023-05-02T14:36:40.727Z,2.80
2023-05-02T14:39:28.528Z,3.05
2023-05-02T14:42:15.918Z,3.17
2023-05-02T14:45:03.668Z,2.90
2023-05-02T14:47:52.878Z,3.13
2023-05-02T14:50:40.935Z,3.08
2023-05-02T14:53:28.349Z,2.80
2023-05-02T14:56:18.555Z,2.90
2023-05-02T14:59:06.087Z,2.92
2023-05-02T15:01:53.882Z,3.10
2023-05-02T15:04:43.432Z,3.03
2023-05-02T15:07:31.133Z,3.00
2023-05-02T15:10:18.405Z,3.00
2023-05-02T15:13:06.616Z,2.20
2023-05-02T15:15:55.511Z,2.42
2023-05-02T15:18:42.838Z,2.40
2023-05-02T15:21:32.620Z,2.50
2023-05-02T15:24:20.168Z,3.00
2023-05-02T15:27:09.409Z,2.88
2023-05-02T15:29:56.951Z,2.35
2023-05-02T15:32:44.309Z,2.67
2023-05-02T15:35:31.808Z,2.70
2023-05-02T15:38:20.482Z,2.47
2023-05-02T15:41:08.358Z,2.63
2023-05-02T15:43:55.713Z,2.20
2023-05-02T15:46:46.661Z,2.67
2023-05-02T15:49:34.438Z,2.60
2023-05-02T15:52:22.674Z,2.33
2023-05-02T15:55:11.806Z,2.30
2023-05-02T15:57:59.205Z,2.50
2023-05-02T16:00:46.966Z,2.37
2023-05-02T16:03:34.836Z,2.83
2023-05-02T16:06:22.999Z,2.60
2023-05-02T16:09:11.207Z,2.92
2023-05-02T16:12:01.420Z,2.40
2023-05-02T16:14:48.696Z,2.50
2023-05-02T16:17:36.310Z,1.87
2023-05-02T16:20:23.768Z,2.40
2023-05-02T16:23:11.180Z,3.03
2023-05-02T16:25:59.346Z,2.43
2023-05-02T16:28:48.148Z,2.58
2023-05-02T16:31:36.297Z,2.42
2023-05-02T16:34:23.700Z,2.60
2023-05-02T16:37:11.463Z,2.30
2023-05-02T16:40:01.034Z,2.33
2023-05-02T16:42:49.943Z,2.35
2023-05-02T16:45:39.406Z,2.70
2023-05-02T16:48:26.980Z,2.38
2023-05-02T16:51:14.357Z,2.63
2023-05-02T16:54:02.467Z,2.58
2023-05-02T16:56:50.280Z,2.55
2023-05-02T16:59:37.712Z,3.40
2023-05-02T17:02:26.843Z,2.55
2023-05-02T17:05:14.296Z,2.92
2023-05-02T17:08:01.683Z,2.10
2023-05-02T17:10:50.453Z,2.35
2023-05-02T17:13:38.014Z,2.33
2023-05-02T17:16:25.533Z,2.35
2023-05-02T17:19:14.263Z,2.05
2023-05-02T17:22:03.143Z,2.33
2023-05-02T17:24:52.835Z,2.33
2023-05-02T17:27:41.053Z,2.55
2023-05-02T17:30:29.070Z,2.33
2023-05-02T17:33:17.027Z,2.97
2023-05-02T17:36:06.899Z,2.60
2023-05-02T17:38:54.569Z,2.50
2023-05-02T17:41:41.999Z,3.35
2023-05-02T17:44:31.295Z,2.85
2023-05-02T17:47:19.765Z,2.40
2023-05-02T17:50:07.832Z,2.20
2023-05-02T17:52:58.535Z,2.78
2023-05-02T17:55:46.129Z,2.05
2023-05-02T17:58:35.338Z,2.30
2023-05-02T18:01:23.097Z,2.47
2023-05-02T18:04:12.537Z,2.53
2023-05-02T18:07:00.253Z,2.63
2023-05-02T18:09:49.145Z,2.30
2023-05-02T18:12:36.947Z,1.98
2023-05-02T18:15:24.808Z,2.40
2023-05-02T18:18:12.251Z,2.03
2023-05-02T18:20:59.612Z,2.17
2023-05-02T18:23:47.756Z,2.33
2023-05-02T18:26:36.985Z,2.00
2023-05-02T18:29:24.706Z,2.15
2023-05-02T18:32:12.200Z,2.10
2023-05-02T18:35:00.409Z,2.47
2023-05-02T18:37:48.052Z,1.70
2023-05-02T18:40:35.520Z,1.90
2023-05-02T18:43:24.269Z,1.93
2023-05-02T18:46:12.832Z,2.70
2023-05-02T18:49:00.358Z,1.80
2023-05-02T18:51:47.853Z,1.98
2023-05-02T18:54:35.323Z,1.80
2023-05-02T18:57:22.744Z,2.00
2023-05-02T19:00:11.944Z,1.80
2023-05-02T19:02:59.652Z,1.77
2023-05-02T19:05:47.409Z,1.90
2023-05-02T19:08:34.901Z,2.10
2023-05-02T19:11:22.754Z,1.70
2023-05-02T19:14:11.655Z,1.90
2023-05-02T19:17:00.442Z,1.90
2023-05-02T19:19:48.667Z,1.70
2023-05-02T19:22:37.145Z,1.67
2023-05-02T19:25:24.392Z,1.70
2023-05-02T19:28:12.177Z,1.83
2023-05-02T19:30:59.532Z,1.80
2023-05-02T19:33:51.987Z,2.27
2023-05-02T19:36:39.344Z,1.83
2023-05-02T19:39:28.348Z,1.80
2023-05-02T19:42:15.761Z,1.88
2023-05-02T19:45:03.792Z,2.33
2023-05-02T19:47:51.608Z,2.33
2023-05-02T19:50:40.249Z,1.77
2023-05-02T19:53:28.088Z,2.10
2023-05-02T19:56:15.628Z,1.90
2023-05-02T19:59:03.199Z,2.27
2023-05-02T20:01:51.499Z,1.53
2023-05-02T20:04:39.298Z,2.03
2023-05-02T20:07:28.160Z,1.80
2023-05-02T20:10:15.754Z,1.83
2023-05-02T20:13:03.147Z,1.90
2023-05-02T20:15:51.802Z,2.00
2023-05-02T20:18:39.232Z,1.80
2023-05-02T20:21:26.750Z,1.80
2023-05-02T20:24:16.258Z,1.90
2023-05-02T20:27:04.133Z,1.97
2023-05-02T20:29:51.835Z,2.00
2023-05-02T20:32:39.559Z,1.83
2023-05-02T20:35:27.346Z,1.87
2023-05-02T20:38:17.704Z,1.97
2023-05-02T20:41:12.286Z,1.60
2023-05-02T20:44:01.237Z,1.80
2023-05-02T20:46:49.013Z,1.90
2023-05-02T20:49:36.453Z,1.67
2023-05-02T20:52:23.885Z,1.83
2023-05-02T20:55:11.512Z,1.90
2023-05-02T20:58:00.732Z,1.80
2023-05-02T21:00:52.318Z,1.87
2023-05-02T21:03:41.099Z,1.93
2023-05-02T21:06:28.846Z,1.90
2023-05-02T21:09:17.328Z,1.70
2023-05-02T21:12:06.286Z,1.80
2023-05-02T21:14:55.000Z,1.80
2023-05-02T21:17:42.738Z,1.70
2023-05-02T21:20:30.185Z,2.10
2023-05-02T21:23:17.566Z,1.97
2023-05-02T21:26:05.127Z,1.67
2023-05-02T21:28:52.593Z,1.67
2023-05-02T21:31:41.253Z,1.50
2023-05-02T21:34:28.987Z,1.60
2023-05-02T21:37:16.475Z,2.00
2023-05-02T21:40:04.184Z,2.00
2023-05-02T21:42:51.792Z,1.90
2023-05-02T21:45:45.298Z,1.70
2023-05-02T21:48:34.728Z,2.37
2023-05-02T21:51:22.292Z,1.87
2023-05-02T21:54:09.949Z,1.60
2023-05-02T21:56:57.489Z,1.60
2023-05-02T21:59:44.837Z,1.53
2023-05-02T22:02:32.519Z,1.70
2023-05-02T22:05:21.588Z,1.87
2023-05-02T22:08:09.173Z,1.60
2023-05-02T22:10:56.607Z,1.90
2023-05-02T22:13:43.966Z,1.53
2023-05-02T22:16:31.399Z,1.77
2023-05-02T22:19:19.218Z,1.90
2023-05-02T22:22:08.085Z,1.50
2023-05-02T22:24:56.571Z,1.60
2023-05-02T22:27:44.174Z,1.43
2023-05-02T22:30:31.588Z,1.60
2023-05-02T22:33:19.164Z,1.60
2023-05-02T22:36:06.678Z,1.80
2023-05-02T22:38:56.320Z,1.83
2023-05-02T22:41:44.025Z,1.87
2023-05-02T22:44:33.914Z,1.90
2023-05-02T22:47:29.109Z,1.93
2023-05-02T22:50:16.627Z,2.20
2023-05-02T22:53:04.376Z,1.83
2023-05-02T22:55:53.620Z,2.10
2023-05-02T22:58:41.135Z,1.90
2023-05-02T23:01:29.368Z,1.73
2023-05-02T23:04:17.109Z,1.97
2023-05-02T23:07:04.808Z,2.10
2023-05-02T23:09:52.062Z,2.10
2023-05-02T23:12:41.859Z,1.80
2023-05-02T23:15:29.793Z,1.80
2023-05-02T23:18:17.772Z,2.10
2023-05-02T23:21:05.427Z,2.20
2023-05-02T23:23:52.893Z,1.83
2023-05-02T23:26:40.364Z,1.73
2023-05-02T23:29:29.063Z,2.07
2023-05-02T23:32:16.883Z,2.17
2023-05-02T23:35:05.756Z,2.30
2023-05-02T23:37:53.407Z,2.00
2023-05-02T23:40:40.992Z,1.97
2023-05-02T23:43:28.394Z,1.90
2023-05-02T23:46:17.589Z,1.70
2023-05-02T23:49:04.918Z,1.90
2023-05-02T23:51:52.257Z,1.63
2023-05-02T23:54:39.734Z,1.97
2023-05-02T23:57:27.155Z,2.00
